createdAt,value
2023-03-06T00:04:29.378Z,87.13
2023-03-06T00:09:31.915Z,86.98
2023-03-06T00:14:34.462Z,87.16
2023-03-06T00:19:36.973Z,87.09
2023-03-06T00:24:39.463Z,87.20
2023-03-06T00:29:42.239Z,87.13
2023-03-06T00:34:48.904Z,87.20
2023-03-06T00:39:51.760Z,87.27
2023-03-06T00:44:54.287Z,87.69
2023-03-06T00:49:56.832Z,87.60
2023-03-06T00:54:59.368Z,87.77
2023-03-06T01:00:02.357Z,87.87
2023-03-06T01:05:06.085Z,87.81
2023-03-06T01:10:09.628Z,87.82
2023-03-06T01:15:13.408Z,87.76
2023-03-06T01:20:17.394Z,88.16
2023-03-06T01:25:19.918Z,88.12
2023-03-06T01:30:22.451Z,88.48
2023-03-06T01:35:25.026Z,88.59
2023-03-06T01:40:27.583Z,88.46
2023-03-06T01:45:30.124Z,88.64
2023-03-06T01:50:32.905Z,88.67
2023-03-06T01:55:36.829Z,88.71
2023-03-06T02:00:39.397Z,88.73
2023-03-06T02:05:43.722Z,88.69
2023-03-06T02:11:17.248Z,88.25
2023-03-06T02:16:24.389Z,88.41
2023-03-06T02:21:32.752Z,88.34
2023-03-06T02:26:37.231Z,89.03
2023-03-06T02:31:42.363Z,88.91
2023-03-06T02:36:51.386Z,88.92
2023-03-06T02:41:54.383Z,89.06
2023-03-06T02:46:56.902Z,88.83
2023-03-06T02:51:59.399Z,89.05
2023-03-06T02:57:01.904Z,89.07
2023-03-06T03:02:04.602Z,89.04
2023-03-06T03:07:08.171Z,89.14
2023-03-06T03:12:10.764Z,89.16
2023-03-06T03:17:13.319Z,89.32
2023-03-06T03:22:16.614Z,89.68
2023-03-06T03:27:19.142Z,89.52
2023-03-06T03:32:21.711Z,89.24
2023-03-06T03:37:24.300Z,89.00
2023-03-06T03:42:26.798Z,89.54
2023-03-06T03:47:29.299Z,89.68
2023-03-06T03:52:31.887Z,89.67
2023-03-06T03:57:34.399Z,89.73
2023-03-06T04:02:36.883Z,90.29
2023-03-06T04:07:39.449Z,90.21
2023-03-06T04:12:41.948Z,90.23
2023-03-06T04:17:44.482Z,89.99
2023-03-06T04:22:47.037Z,90.33
2023-03-06T04:27:49.514Z,90.41
2023-03-06T04:32:52.124Z,90.09
2023-03-06T04:37:54.934Z,89.80
2023-03-06T04:42:59.639Z,89.86
2023-03-06T04:48:02.656Z,89.87
2023-03-06T04:53:05.284Z,89.94
2023-03-06T04:58:07.764Z,90.17
2023-03-06T05:03:11.909Z,90.00
2023-03-06T05:08:15.982Z,90.29
2023-03-06T05:13:18.443Z,90.34
2023-03-06T05:18:21.323Z,90.28
2023-03-06T05:23:23.845Z,89.96
2023-03-06T05:28:26.938Z,89.91
2023-03-06T05:33:31.809Z,89.88
2023-03-06T05:38:34.374Z,90.12
2023-03-06T05:43:36.917Z,89.93
2023-03-06T05:48:39.546Z,90.05
2023-03-06T05:53:42.070Z,89.84
2023-03-06T05:58:44.615Z,89.48
2023-03-06T06:03:48.614Z,89.35
2023-03-06T06:08:51.251Z,89.07
2023-03-06T06:13:53.733Z,88.59
2023-03-06T06:18:57.052Z,88.30
2023-03-06T06:23:59.559Z,87.71
2023-03-06T06:29:04.319Z,87.51
2023-03-06T06:34:08.127Z,86.69
2023-03-06T06:39:13.446Z,86.13
2023-03-06T06:44:16.155Z,85.58
2023-03-06T06:49:18.778Z,85.16
2023-03-06T06:54:22.372Z,84.56
2023-03-06T06:59:25.005Z,83.21
2023-03-06T07:04:27.663Z,83.34
2023-03-06T07:09:31.213Z,82.31
2023-03-06T07:14:33.906Z,81.98
2023-03-06T07:19:37.963Z,81.66
2023-03-06T07:24:41.389Z,80.74
2023-03-06T07:29:44.335Z,80.25
2023-03-06T07:34:47.818Z,79.76
2023-03-06T07:39:50.359Z,79.41
2023-03-06T07:44:52.947Z,78.23
2023-03-06T07:49:56.382Z,76.66
2023-03-06T07:54:59.005Z,76.29
2023-03-06T08:00:02.187Z,76.71
2023-03-06T08:05:06.733Z,77.18
2023-03-06T08:10:13.069Z,75.90
2023-03-06T08:15:15.530Z,75.34
2023-03-06T08:20:18.561Z,73.88
2023-03-06T08:25:21.178Z,73.62
2023-03-06T08:30:23.797Z,71.58
2023-03-06T08:35:26.301Z,70.95
2023-03-06T08:40:30.451Z,70.82
2023-03-06T08:45:33.170Z,70.07
2023-03-06T08:50:35.753Z,69.78
2023-03-06T08:55:39.215Z,66.97
2023-03-06T09:00:41.794Z,65.22
2023-03-06T09:05:44.552Z,64.28
2023-03-06T09:10:48.442Z,62.76
2023-03-06T09:15:51.006Z,61.77
2023-03-06T09:20:53.539Z,61.07
2023-03-06T09:25:58.074Z,60.05
2023-03-06T09:31:00.851Z,59.70
2023-03-06T09:36:04.538Z,58.06
2023-03-06T09:41:32.514Z,56.94
2023-03-06T09:46:56.812Z,54.96
2023-03-06T09:52:02.082Z,54.94
2023-03-06T09:57:29.248Z,53.81
2023-03-06T10:02:46.064Z,53.88
2023-03-06T10:08:04.038Z,50.57
2023-03-06T10:13:19.262Z,50.94
2023-03-06T10:18:21.876Z,50.94
2023-03-06T10:23:33.564Z,48.85
2023-03-06T10:28:46.828Z,48.99
2023-03-06T10:33:55.630Z,49.73
2023-03-06T10:38:59.182Z,45.81
2023-03-06T10:44:04.792Z,44.56
2023-03-06T10:49:25.183Z,42.78
2023-03-06T10:54:31.298Z,44.95
2023-03-06T10:59:33.754Z,45.84
2023-03-06T11:04:36.634Z,42.22
2023-03-06T11:09:39.594Z,41.38
2023-03-06T11:14:42.791Z,40.98
2023-03-06T11:19:45.364Z,41.63
2023-03-06T11:24:52.770Z,41.66
2023-03-06T11:29:56.977Z,42.21
2023-03-06T11:35:17.278Z,40.31
2023-03-06T11:40:41.829Z,41.58
2023-03-06T11:45:56.898Z,41.94
2023-03-06T11:51:09.240Z,42.29
2023-03-06T11:56:19.987Z,40.16
2023-03-06T12:01:32.207Z,41.03
2023-03-06T12:07:07.801Z,40.55
2023-03-06T12:12:22.283Z,41.05
2023-03-06T12:17:53.049Z,38.94
2023-03-06T12:23:17.608Z,39.94
2023-03-06T12:28:29.136Z,40.56
2023-03-06T12:34:01.787Z,39.86
2023-03-06T12:39:17.892Z,40.77
2023-03-06T12:44:20.343Z,41.34
2023-03-06T12:49:33.337Z,40.27
2023-03-06T12:54:41.504Z,40.65
2023-03-06T12:59:47.233Z,39.05
2023-03-06T13:05:14.049Z,36.71
2023-03-06T13:10:27.097Z,37.88
2023-03-06T13:15:29.638Z,39.27
2023-03-06T13:20:40.730Z,38.41
2023-03-06T13:25:48.217Z,38.79
2023-03-06T13:30:52.879Z,39.39
2023-03-06T13:35:57.881Z,37.04
2023-03-06T13:41:21.931Z,39.48
2023-03-06T13:46:31.061Z,39.94
2023-03-06T13:51:36.992Z,40.01
2023-03-06T13:57:12.476Z,39.60
2023-03-06T14:02:55.728Z,39.01
2023-03-06T14:08:09.983Z,39.44
2023-03-06T14:13:35.153Z,39.26
2023-03-06T14:18:46.086Z,40.60
2023-03-06T14:24:00.411Z,40.50
2023-03-06T14:29:03.727Z,41.07
2023-03-06T14:34:17.882Z,42.12
2023-03-06T14:39:33.196Z,42.54
2023-03-06T14:44:35.740Z,42.43
2023-03-06T14:49:38.284Z,42.43
2023-03-06T14:54:45.252Z,41.31
2023-03-06T14:59:58.842Z,41.96
2023-03-06T15:05:17.481Z,41.90
2023-03-06T15:10:32.304Z,42.98
2023-03-06T15:15:35.023Z,43.83
2023-03-06T15:20:37.676Z,44.41
2023-03-06T15:25:40.222Z,45.69
2023-03-06T15:30:42.772Z,46.14
2023-03-06T15:35:52.692Z,46.80
2023-03-06T15:40:57.701Z,47.54
2023-03-06T15:46:01.307Z,48.08
2023-03-06T15:51:04.947Z,48.94
2023-03-06T15:56:10.406Z,49.47
2023-03-06T16:01:17.289Z,50.23
2023-03-06T16:06:24.459Z,50.86
2023-03-06T16:11:38.643Z,51.65
2023-03-06T16:16:46.078Z,52.07
2023-03-06T16:21:48.773Z,52.66
2023-03-06T16:26:52.890Z,53.27
2023-03-06T16:31:57.637Z,54.35
2023-03-06T16:37:00.188Z,55.79
2023-03-06T16:42:02.742Z,58.05
2023-03-06T16:47:05.446Z,60.80
2023-03-06T16:52:10.842Z,61.61
2023-03-06T16:57:16.441Z,63.02
2023-03-06T17:02:18.972Z,63.76
2023-03-06T17:07:22.252Z,64.13
2023-03-06T17:12:25.117Z,65.24
2023-03-06T17:17:28.797Z,66.28
2023-03-06T17:22:36.395Z,67.16
2023-03-06T17:27:39.073Z,68.26
2023-03-06T17:32:42.414Z,68.21
2023-03-06T17:37:45.821Z,69.46
2023-03-06T17:42:48.587Z,70.70
2023-03-06T17:47:54.454Z,71.08
2023-03-06T17:52:57.013Z,71.29
2023-03-06T17:58:00.018Z,71.87
2023-03-06T18:03:02.897Z,72.64
2023-03-06T18:08:08.043Z,73.06
2023-03-06T18:13:11.011Z,73.58
2023-03-06T18:18:13.842Z,74.48
2023-03-06T18:23:18.634Z,75.05
2023-03-06T18:28:21.881Z,75.18
2023-03-06T18:33:24.814Z,75.56
2023-03-06T18:38:27.611Z,75.75
2023-03-06T18:43:31.147Z,76.48
2023-03-06T18:48:36.369Z,76.74
2023-03-06T18:53:40.244Z,76.88
2023-03-06T18:58:44.268Z,76.71
2023-03-06T19:03:47.344Z,76.48
2023-03-06T19:08:53.880Z,76.47
2023-03-06T19:13:56.512Z,76.70
2023-03-06T19:18:59.544Z,77.44
2023-03-06T19:24:02.741Z,77.63
2023-03-06T19:29:05.512Z,77.94
2023-03-06T19:34:11.023Z,77.87
2023-03-06T19:39:13.737Z,77.85
2023-03-06T19:44:16.609Z,78.22
2023-03-06T19:49:21.865Z,79.01
2023-03-06T19:54:25.520Z,79.30
2023-03-06T19:59:28.381Z,79.57
2023-03-06T20:04:33.010Z,79.41
2023-03-06T20:09:38.905Z,79.68
2023-03-06T20:14:42.876Z,80.32
2023-03-06T20:19:45.468Z,80.88
2023-03-06T20:24:48.439Z,81.39
2023-03-06T20:29:51.211Z,81.37
2023-03-06T20:34:53.785Z,81.45
2023-03-06T20:39:56.422Z,81.60
2023-03-06T20:45:02.186Z,82.03
2023-03-06T20:50:05.635Z,82.64
2023-03-06T20:55:09.956Z,83.03
2023-03-06T21:00:13.441Z,82.94
2023-03-06T21:05:16.657Z,82.99
2023-03-06T21:10:19.271Z,83.54
2023-03-06T21:15:22.446Z,84.18
2023-03-06T21:20:25.015Z,84.78
2023-03-06T21:25:28.932Z,84.75
2023-03-06T21:30:32.530Z,84.54
2023-03-06T21:35:38.030Z,84.93
2023-03-06T21:40:41.171Z,85.30
2023-03-06T21:45:48.363Z,85.49
2023-03-06T21:50:50.953Z,85.72
2023-03-06T21:55:53.536Z,86.31
2023-03-06T22:00:56.839Z,86.31
2023-03-06T22:06:20.320Z,86.67
2023-03-06T22:11:25.237Z,86.69
2023-03-06T22:16:27.842Z,87.11
2023-03-06T22:21:30.503Z,87.24
2023-03-06T22:26:33.046Z,87.20
2023-03-06T22:31:35.700Z,87.71
2023-03-06T22:36:38.367Z,87.33
2023-03-06T22:41:41.066Z,87.39
2023-03-06T22:46:43.981Z,87.53
2023-03-06T22:51:46.505Z,87.36
2023-03-06T22:56:49.032Z,87.09
2023-03-06T23:01:51.544Z,87.23
2023-03-06T23:06:54.065Z,87.19
2023-03-06T23:11:56.596Z,87.06
2023-03-06T23:16:59.124Z,86.75
2023-03-06T23:22:01.773Z,86.67
2023-03-06T23:27:04.698Z,86.91
2023-03-06T23:32:07.560Z,87.14
2023-03-06T23:37:10.402Z,87.49
2023-03-06T23:42:12.867Z,87.53
2023-03-06T23:47:17.118Z,87.34
2023-03-06T23:52:19.637Z,87.64
2023-03-06T23:57:22.339Z,88.03
